sensor_id;sensor_type;location;lat;lon;timestamp;P1;durP1;ratioP1;P2;durP2;ratioP2
14740;SDS011;7462;53.530;9.414;2023-04-24T00:01:44;6.37;;;5.77;;
14740;SDS011;7462;53.530;9.414;2023-04-24T00:04:13;7.10;;;5.73;;
14740;SDS011;7462;53.530;9.414;2023-04-24T00:06:43;5.70;;;5.20;;
14740;SDS011;7462;53.530;9.414;2023-04-24T00:09:15;5.80;;;5.30;;
14740;SDS011;7462;53.530;9.414;2023-04-24T00:11:43;5.93;;;5.43;;
14740;SDS011;7462;53.530;9.414;2023-04-24T00:14:11;6.60;;;6.00;;
14740;SDS011;7462;53.530;9.414;2023-04-24T00:16:39;7.13;;;6.43;;
14740;SDS011;7462;53.530;9.414;2023-04-24T00:19:09;7.00;;;6.40;;
14740;SDS011;7462;53.530;9.414;2023-04-24T00:21:38;6.83;;;6.23;;
14740;SDS011;7462;53.530;9.414;2023-04-24T00:24:07;7.17;;;6.47;;
14740;SDS011;7462;53.530;9.414;2023-04-24T00:26:36;7.50;;;6.80;;
14740;SDS011;7462;53.530;9.414;2023-04-24T00:29:04;7.77;;;6.80;;
14740;SDS011;7462;53.530;9.414;2023-04-24T00:31:32;7.57;;;6.83;;
14740;SDS011;7462;53.530;9.414;2023-04-24T00:34:01;7.63;;;7.03;;
14740;SDS011;7462;53.530;9.414;2023-04-24T00:36:31;8.57;;;7.47;;
14740;SDS011;7462;53.530;9.414;2023-04-24T00:38:59;8.80;;;8.00;;
14740;SDS011;7462;53.530;9.414;2023-04-24T00:41:27;7.93;;;7.23;;
14740;SDS011;7462;53.530;9.414;2023-04-24T00:43:55;8.93;;;7.30;;
14740;SDS011;7462;53.530;9.414;2023-04-24T00:46:23;7.43;;;6.73;;
14740;SDS011;7462;53.530;9.414;2023-04-24T00:48:51;7.23;;;6.53;;
14740;SDS011;7462;53.530;9.414;2023-04-24T00:51:20;7.73;;;7.03;;
14740;SDS011;7462;53.530;9.414;2023-04-24T00:53:49;6.83;;;6.23;;
14740;SDS011;7462;53.530;9.414;2023-04-24T00:56:18;7.53;;;6.80;;
14740;SDS011;7462;53.530;9.414;2023-04-24T00:58:47;7.93;;;6.70;;
14740;SDS011;7462;53.530;9.414;2023-04-24T01:01:15;6.93;;;6.17;;
14740;SDS011;7462;53.530;9.414;2023-04-24T01:03:44;6.60;;;6.00;;
14740;SDS011;7462;53.530;9.414;2023-04-24T01:06:13;6.40;;;5.80;;
14740;SDS011;7462;53.530;9.414;2023-04-24T01:08:42;6.37;;;5.77;;
14740;SDS011;7462;53.530;9.414;2023-04-24T01:11:12;6.93;;;6.23;;
14740;SDS011;7462;53.530;9.414;2023-04-24T01:13:40;6.27;;;5.73;;
14740;SDS011;7462;53.530;9.414;2023-04-24T01:16:09;6.50;;;5.97;;
14740;SDS011;7462;53.530;9.414;2023-04-24T01:18:37;7.13;;;5.73;;
14740;SDS011;7462;53.530;9.414;2023-04-24T01:21:05;6.53;;;5.93;;
14740;SDS011;7462;53.530;9.414;2023-04-24T01:23:37;6.70;;;5.97;;
14740;SDS011;7462;53.530;9.414;2023-04-24T01:26:05;5.67;;;5.17;;
14740;SDS011;7462;53.530;9.414;2023-04-24T01:28:33;6.47;;;5.87;;
14740;SDS011;7462;53.530;9.414;2023-04-24T01:31:04;6.57;;;5.90;;
14740;SDS011;7462;53.530;9.414;2023-04-24T01:33:32;6.27;;;5.67;;
14740;SDS011;7462;53.530;9.414;2023-04-24T01:36:00;6.83;;;5.97;;
14740;SDS011;7462;53.530;9.414;2023-04-24T01:38:29;6.57;;;5.97;;
14740;SDS011;7462;53.530;9.414;2023-04-24T01:41:00;7.10;;;5.77;;
14740;SDS011;7462;53.530;9.414;2023-04-24T01:43:28;6.20;;;5.50;;
14740;SDS011;7462;53.530;9.414;2023-04-24T01:45:57;6.17;;;5.57;;
14740;SDS011;7462;53.530;9.414;2023-04-24T01:48:25;5.87;;;5.37;;
14740;SDS011;7462;53.530;9.414;2023-04-24T01:50:54;5.40;;;4.90;;
14740;SDS011;7462;53.530;9.414;2023-04-24T01:53:22;5.20;;;4.80;;
14740;SDS011;7462;53.530;9.414;2023-04-24T01:55:50;5.17;;;4.77;;
14740;SDS011;7462;53.530;9.414;2023-04-24T01:58:20;4.23;;;3.83;;
14740;SDS011;7462;53.530;9.414;2023-04-24T02:00:48;4.20;;;3.90;;
14740;SDS011;7462;53.530;9.414;2023-04-24T02:03:17;4.23;;;3.83;;
14740;SDS011;7462;53.530;9.414;2023-04-24T02:05:47;4.20;;;3.80;;
14740;SDS011;7462;53.530;9.414;2023-04-24T02:08:15;3.70;;;3.40;;
14740;SDS011;7462;53.530;9.414;2023-04-24T02:10:44;3.60;;;3.30;;
14740;SDS011;7462;53.530;9.414;2023-04-24T02:13:12;3.83;;;3.43;;
14740;SDS011;7462;53.530;9.414;2023-04-24T02:15:41;3.23;;;3.03;;
14740;SDS011;7462;53.530;9.414;2023-04-24T02:18:09;3.50;;;3.20;;
14740;SDS011;7462;53.530;9.414;2023-04-24T02:20:39;3.50;;;3.20;;
14740;SDS011;7462;53.530;9.414;2023-04-24T02:23:07;3.50;;;3.20;;
14740;SDS011;7462;53.530;9.414;2023-04-24T02:25:35;3.13;;;2.87;;
14740;SDS011;7462;53.530;9.414;2023-04-24T02:28:03;3.27;;;3.07;;
14740;SDS011;7462;53.530;9.414;2023-04-24T02:30:33;3.57;;;3.27;;
14740;SDS011;7462;53.530;9.414;2023-04-24T02:33:02;3.60;;;3.30;;
14740;SDS011;7462;53.530;9.414;2023-04-24T02:35:30;3.40;;;3.20;;
14740;SDS011;7462;53.530;9.414;2023-04-24T02:37:59;4.63;;;3.43;;
14740;SDS011;7462;53.530;9.414;2023-04-24T02:40:27;3.77;;;3.20;;
14740;SDS011;7462;53.530;9.414;2023-04-24T02:42:55;3.77;;;3.37;;
14740;SDS011;7462;53.530;9.414;2023-04-24T02:45:23;3.60;;;3.30;;
14740;SDS011;7462;53.530;9.414;2023-04-24T02:47:51;3.80;;;3.27;;
14740;SDS011;7462;53.530;9.414;2023-04-24T02:50:21;3.43;;;3.07;;
14740;SDS011;7462;53.530;9.414;2023-04-24T02:52:50;3.37;;;3.00;;
14740;SDS011;7462;53.530;9.414;2023-04-24T02:55:18;3.33;;;3.03;;
14740;SDS011;7462;53.530;9.414;2023-04-24T02:57:46;3.03;;;2.73;;
14740;SDS011;7462;53.530;9.414;2023-04-24T03:00:14;3.20;;;2.90;;
14740;SDS011;7462;53.530;9.414;2023-04-24T03:02:45;2.77;;;2.40;;
14740;SDS011;7462;53.530;9.414;2023-04-24T03:05:14;3.00;;;2.80;;
14740;SDS011;7462;53.530;9.414;2023-04-24T03:07:43;2.90;;;2.70;;
14740;SDS011;7462;53.530;9.414;2023-04-24T03:10:12;3.53;;;2.93;;
14740;SDS011;7462;53.530;9.414;2023-04-24T03:12:40;2.73;;;2.40;;
14740;SDS011;7462;53.530;9.414;2023-04-24T03:15:09;2.47;;;2.27;;
14740;SDS011;7462;53.530;9.414;2023-04-24T03:17:37;2.87;;;2.67;;
14740;SDS011;7462;53.530;9.414;2023-04-24T03:20:06;2.83;;;2.43;;
14740;SDS011;7462;53.530;9.414;2023-04-24T03:22:36;3.00;;;2.63;;
14740;SDS011;7462;53.530;9.414;2023-04-24T03:25:08;3.77;;;2.70;;
14740;SDS011;7462;53.530;9.414;2023-04-24T03:27:37;2.73;;;2.40;;
14740;SDS011;7462;53.530;9.414;2023-04-24T03:30:23;2.60;;;2.40;;
14740;SDS011;7462;53.530;9.414;2023-04-24T03:32:56;2.93;;;2.60;;
14740;SDS011;7462;53.530;9.414;2023-04-24T03:35:28;2.93;;;2.67;;
14740;SDS011;7462;53.530;9.414;2023-04-24T03:37:59;2.80;;;2.43;;
14740;SDS011;7462;53.530;9.414;2023-04-24T03:40:55;3.50;;;3.17;;
14740;SDS011;7462;53.530;9.414;2023-04-24T03:43:43;4.67;;;4.27;;
14740;SDS011;7462;53.530;9.414;2023-04-24T03:46:11;3.77;;;3.47;;
14740;SDS011;7462;53.530;9.414;2023-04-24T03:48:45;3.70;;;3.40;;
14740;SDS011;7462;53.530;9.414;2023-04-24T03:51:16;3.70;;;3.40;;
14740;SDS011;7462;53.530;9.414;2023-04-24T03:53:47;3.87;;;3.47;;
14740;SDS011;7462;53.530;9.414;2023-04-24T03:56:19;3.50;;;3.23;;
14740;SDS011;7462;53.530;9.414;2023-04-24T03:58:47;3.70;;;3.40;;
14740;SDS011;7462;53.530;9.414;2023-04-24T04:01:17;3.47;;;3.17;;
14740;SDS011;7462;53.530;9.414;2023-04-24T04:04:07;3.73;;;3.20;;
14740;SDS011;7462;53.530;9.414;2023-04-24T04:06:36;3.40;;;3.10;;
14740;SDS011;7462;53.530;9.414;2023-04-24T04:09:05;3.50;;;3.20;;
14740;SDS011;7462;53.530;9.414;2023-04-24T04:11:36;3.70;;;3.30;;
14740;SDS011;7462;53.530;9.414;2023-04-24T04:14:04;3.60;;;3.30;;
14740;SDS011;7462;53.530;9.414;2023-04-24T04:16:34;3.40;;;3.10;;
14740;SDS011;7462;53.530;9.414;2023-04-24T04:19:04;3.60;;;3.30;;
14740;SDS011;7462;53.530;9.414;2023-04-24T04:21:33;3.33;;;3.10;;
14740;SDS011;7462;53.530;9.414;2023-04-24T04:24:09;3.70;;;3.40;;
14740;SDS011;7462;53.530;9.414;2023-04-24T04:26:43;4.60;;;3.37;;
14740;SDS011;7462;53.530;9.414;2023-04-24T04:29:21;3.37;;;3.07;;
14740;SDS011;7462;53.530;9.414;2023-04-24T04:31:50;3.60;;;2.90;;
14740;SDS011;7462;53.530;9.414;2023-04-24T04:34:20;3.37;;;3.07;;
14740;SDS011;7462;53.530;9.414;2023-04-24T04:36:49;3.30;;;3.00;;
14740;SDS011;7462;53.530;9.414;2023-04-24T04:39:28;4.03;;;2.90;;
14740;SDS011;7462;53.530;9.414;2023-04-24T04:42:19;2.90;;;2.63;;
14740;SDS011;7462;53.530;9.414;2023-04-24T04:44:48;4.87;;;2.90;;
14740;SDS011;7462;53.530;9.414;2023-04-24T04:47:24;3.10;;;2.80;;
14740;SDS011;7462;53.530;9.414;2023-04-24T04:49:54;2.73;;;2.53;;
14740;SDS011;7462;53.530;9.414;2023-04-24T04:52:25;4.33;;;2.63;;
14740;SDS011;7462;53.530;9.414;2023-04-24T04:55:02;4.10;;;2.80;;
14740;SDS011;7462;53.530;9.414;2023-04-24T04:57:52;2.83;;;2.60;;
14740;SDS011;7462;53.530;9.414;2023-04-24T05:00:22;4.67;;;2.60;;
14740;SDS011;7462;53.530;9.414;2023-04-24T05:02:52;2.40;;;2.20;;
14740;SDS011;7462;53.530;9.414;2023-04-24T05:05:24;2.40;;;2.20;;
14740;SDS011;7462;53.530;9.414;2023-04-24T05:07:55;3.23;;;2.37;;
14740;SDS011;7462;53.530;9.414;2023-04-24T05:10:24;2.27;;;2.07;;
14740;SDS011;7462;53.530;9.414;2023-04-24T05:12:55;3.20;;;2.13;;
14740;SDS011;7462;53.530;9.414;2023-04-24T05:15:23;2.23;;;2.03;;
14740;SDS011;7462;53.530;9.414;2023-04-24T05:17:51;3.03;;;2.00;;
14740;SDS011;7462;53.530;9.414;2023-04-24T05:20:23;3.50;;;2.27;;
14740;SDS011;7462;53.530;9.414;2023-04-24T05:22:53;3.00;;;2.67;;
14740;SDS011;7462;53.530;9.414;2023-04-24T05:25:23;3.00;;;2.30;;
14740;SDS011;7462;53.530;9.414;2023-04-24T05:27:56;3.07;;;2.30;;
14740;SDS011;7462;53.530;9.414;2023-04-24T05:30:24;2.73;;;2.00;;
14740;SDS011;7462;53.530;9.414;2023-04-24T05:32:53;2.10;;;1.90;;
14740;SDS011;7462;53.530;9.414;2023-04-24T05:35:22;2.30;;;1.90;;
14740;SDS011;7462;53.530;9.414;2023-04-24T05:37:50;2.10;;;1.90;;
14740;SDS011;7462;53.530;9.414;2023-04-24T05:40:18;2.57;;;1.90;;
14740;SDS011;7462;53.530;9.414;2023-04-24T05:42:47;2.10;;;1.83;;
14740;SDS011;7462;53.530;9.414;2023-04-24T05:45:17;2.50;;;1.80;;
14740;SDS011;7462;53.530;9.414;2023-04-24T05:47:45;2.43;;;2.17;;
14740;SDS011;7462;53.530;9.414;2023-04-24T05:50:13;3.30;;;2.20;;
14740;SDS011;7462;53.530;9.414;2023-04-24T05:52:42;3.63;;;2.07;;
14740;SDS011;7462;53.530;9.414;2023-04-24T05:55:22;2.33;;;2.00;;
14740;SDS011;7462;53.530;9.414;2023-04-24T05:57:50;3.07;;;1.90;;
14740;SDS011;7462;53.530;9.414;2023-04-24T06:00:20;2.70;;;2.00;;
14740;SDS011;7462;53.530;9.414;2023-04-24T06:02:57;2.30;;;2.10;;
14740;SDS011;7462;53.530;9.414;2023-04-24T06:05:26;2.73;;;2.10;;
14740;SDS011;7462;53.530;9.414;2023-04-24T06:07:55;2.33;;;1.90;;
14740;SDS011;7462;53.530;9.414;2023-04-24T06:10:26;3.37;;;2.43;;
14740;SDS011;7462;53.530;9.414;2023-04-24T06:12:54;2.27;;;1.93;;
14740;SDS011;7462;53.530;9.414;2023-04-24T06:15:29;3.50;;;2.30;;
14740;SDS011;7462;53.530;9.414;2023-04-24T06:18:06;2.20;;;2.00;;
14740;SDS011;7462;53.530;9.414;2023-04-24T06:20:37;3.03;;;1.70;;
14740;SDS011;7462;53.530;9.414;2023-04-24T06:23:07;3.40;;;2.30;;
14740;SDS011;7462;53.530;9.414;2023-04-24T06:25:35;2.80;;;2.17;;
14740;SDS011;7462;53.530;9.414;2023-04-24T06:28:07;2.67;;;2.47;;
14740;SDS011;7462;53.530;9.414;2023-04-24T06:30:36;2.90;;;2.30;;
14740;SDS011;7462;53.530;9.414;2023-04-24T06:33:04;3.00;;;2.70;;
14740;SDS011;7462;53.530;9.414;2023-04-24T06:35:46;2.77;;;2.37;;
14740;SDS011;7462;53.530;9.414;2023-04-24T06:38:14;2.83;;;2.60;;
14740;SDS011;7462;53.530;9.414;2023-04-24T06:40:42;3.40;;;2.70;;
14740;SDS011;7462;53.530;9.414;2023-04-24T06:43:11;3.23;;;2.93;;
14740;SDS011;7462;53.530;9.414;2023-04-24T06:45:40;3.10;;;2.80;;
14740;SDS011;7462;53.530;9.414;2023-04-24T06:48:10;3.70;;;3.40;;
14740;SDS011;7462;53.530;9.414;2023-04-24T06:50:38;3.67;;;3.10;;
14740;SDS011;7462;53.530;9.414;2023-04-24T06:53:06;3.80;;;2.80;;
14740;SDS011;7462;53.530;9.414;2023-04-24T06:55:37;3.20;;;2.90;;
14740;SDS011;7462;53.530;9.414;2023-04-24T06:58:05;3.90;;;3.30;;
14740;SDS011;7462;53.530;9.414;2023-04-24T07:00:34;3.20;;;3.00;;
14740;SDS011;7462;53.530;9.414;2023-04-24T07:03:05;4.20;;;3.90;;
14740;SDS011;7462;53.530;9.414;2023-04-24T07:05:33;3.43;;;3.23;;
14740;SDS011;7462;53.530;9.414;2023-04-24T07:08:01;4.13;;;3.73;;
14740;SDS011;7462;53.530;9.414;2023-04-24T07:10:30;4.50;;;4.10;;
14740;SDS011;7462;53.530;9.414;2023-04-24T07:13:00;4.13;;;3.30;;
14740;SDS011;7462;53.530;9.414;2023-04-24T07:15:28;3.77;;;3.47;;
14740;SDS011;7462;53.530;9.414;2023-04-24T07:17:57;4.33;;;3.73;;
14740;SDS011;7462;53.530;9.414;2023-04-24T07:20:27;4.50;;;3.90;;
14740;SDS011;7462;53.530;9.414;2023-04-24T07:22:55;4.57;;;4.17;;
14740;SDS011;7462;53.530;9.414;2023-04-24T07:25:23;4.30;;;3.90;;
14740;SDS011;7462;53.530;9.414;2023-04-24T07:27:51;4.97;;;4.57;;
14740;SDS011;7462;53.530;9.414;2023-04-24T07:30:20;4.63;;;4.33;;
14740;SDS011;7462;53.530;9.414;2023-04-24T07:32:48;4.63;;;4.23;;
14740;SDS011;7462;53.530;9.414;2023-04-24T07:35:16;4.93;;;4.53;;
14740;SDS011;7462;53.530;9.414;2023-04-24T07:37:47;6.10;;;5.10;;
14740;SDS011;7462;53.530;9.414;2023-04-24T07:40:15;4.60;;;4.20;;
14740;SDS011;7462;53.530;9.414;2023-04-24T07:42:44;4.80;;;4.40;;
14740;SDS011;7462;53.530;9.414;2023-04-24T07:45:14;5.37;;;4.90;;
14740;SDS011;7462;53.530;9.414;2023-04-24T07:47:43;5.63;;;5.13;;
14740;SDS011;7462;53.530;9.414;2023-04-24T07:50:12;5.00;;;4.60;;
14740;SDS011;7462;53.530;9.414;2023-04-24T07:52:40;6.37;;;5.43;;
14740;SDS011;7462;53.530;9.414;2023-04-24T07:55:09;5.20;;;4.80;;
14740;SDS011;7462;53.530;9.414;2023-04-24T07:57:37;6.57;;;5.40;;
14740;SDS011;7462;53.530;9.414;2023-04-24T08:00:06;5.03;;;4.63;;
14740;SDS011;7462;53.530;9.414;2023-04-24T08:02:37;5.60;;;4.93;;
14740;SDS011;7462;53.530;9.414;2023-04-24T08:05:06;6.17;;;5.67;;
14740;SDS011;7462;53.530;9.414;2023-04-24T08:07:35;6.17;;;5.60;;
14740;SDS011;7462;53.530;9.414;2023-04-24T08:10:04;6.33;;;5.50;;
14740;SDS011;7462;53.530;9.414;2023-04-24T08:12:34;6.70;;;6.00;;
14740;SDS011;7462;53.530;9.414;2023-04-24T08:15:02;6.50;;;5.90;;
14740;SDS011;7462;53.530;9.414;2023-04-24T08:17:32;6.27;;;5.67;;
14740;SDS011;7462;53.530;9.414;2023-04-24T08:20:00;6.47;;;5.77;;
14740;SDS011;7462;53.530;9.414;2023-04-24T08:22:30;6.90;;;6.30;;
14740;SDS011;7462;53.530;9.414;2023-04-24T08:24:59;7.20;;;6.60;;
14740;SDS011;7462;53.530;9.414;2023-04-24T08:27:28;7.87;;;7.20;;
14740;SDS011;7462;53.530;9.414;2023-04-24T08:29:57;7.03;;;6.43;;
14740;SDS011;7462;53.530;9.414;2023-04-24T08:32:26;7.60;;;6.90;;
14740;SDS011;7462;53.530;9.414;2023-04-24T08:34:57;7.40;;;6.80;;
14740;SDS011;7462;53.530;9.414;2023-04-24T08:37:27;8.67;;;7.87;;
14740;SDS011;7462;53.530;9.414;2023-04-24T08:39:55;9.50;;;8.70;;
14740;SDS011;7462;53.530;9.414;2023-04-24T08:42:27;9.07;;;8.13;;
14740;SDS011;7462;53.530;9.414;2023-04-24T08:45:00;8.67;;;7.87;;
14740;SDS011;7462;53.530;9.414;2023-04-24T08:47:29;8.63;;;7.83;;
14740;SDS011;7462;53.530;9.414;2023-04-24T08:49:58;9.27;;;8.40;;
14740;SDS011;7462;53.530;9.414;2023-04-24T08:52:29;9.23;;;8.43;;
14740;SDS011;7462;53.530;9.414;2023-04-24T08:54:57;9.30;;;8.47;;
14740;SDS011;7462;53.530;9.414;2023-04-24T08:57:27;9.00;;;8.20;;
14740;SDS011;7462;53.530;9.414;2023-04-24T08:59:55;8.77;;;8.07;;
14740;SDS011;7462;53.530;9.414;2023-04-24T09:02:26;9.17;;;8.37;;
14740;SDS011;7462;53.530;9.414;2023-04-24T09:04:55;8.60;;;7.90;;
14740;SDS011;7462;53.530;9.414;2023-04-24T09:07:24;8.50;;;7.80;;
14740;SDS011;7462;53.530;9.414;2023-04-24T09:09:53;8.17;;;7.37;;
14740;SDS011;7462;53.530;9.414;2023-04-24T09:12:22;8.60;;;7.20;;
14740;SDS011;7462;53.530;9.414;2023-04-24T09:14:50;8.03;;;6.73;;
14740;SDS011;7462;53.530;9.414;2023-04-24T09:17:19;7.03;;;6.40;;
14740;SDS011;7462;53.530;9.414;2023-04-24T09:19:51;8.83;;;6.83;;
14740;SDS011;7462;53.530;9.414;2023-04-24T09:22:19;6.83;;;6.23;;
14740;SDS011;7462;53.530;9.414;2023-04-24T09:24:48;7.30;;;6.60;;
14740;SDS011;7462;53.530;9.414;2023-04-24T09:27:29;7.00;;;6.00;;
14740;SDS011;7462;53.530;9.414;2023-04-24T09:29:57;7.47;;;6.87;;
14740;SDS011;7462;53.530;9.414;2023-04-24T09:32:26;8.17;;;6.60;;
14740;SDS011;7462;53.530;9.414;2023-04-24T09:35:10;7.30;;;6.60;;
14740;SDS011;7462;53.530;9.414;2023-04-24T09:37:40;7.87;;;7.17;;
14740;SDS011;7462;53.530;9.414;2023-04-24T09:40:14;8.73;;;7.93;;
14740;SDS011;7462;53.530;9.414;2023-04-24T09:42:44;8.43;;;7.70;;
14740;SDS011;7462;53.530;9.414;2023-04-24T09:45:13;7.83;;;7.13;;
14740;SDS011;7462;53.530;9.414;2023-04-24T09:47:43;7.93;;;7.13;;
14740;SDS011;7462;53.530;9.414;2023-04-24T09:50:16;7.57;;;6.80;;
14740;SDS011;7462;53.530;9.414;2023-04-24T09:52:47;8.07;;;7.17;;
14740;SDS011;7462;53.530;9.414;2023-04-24T09:55:24;8.30;;;7.50;;
14740;SDS011;7462;53.530;9.414;2023-04-24T09:57:53;8.60;;;7.80;;
14740;SDS011;7462;53.530;9.414;2023-04-24T10:00:23;9.93;;;7.87;;
14740;SDS011;7462;53.530;9.414;2023-04-24T10:02:56;8.67;;;7.80;;
14740;SDS011;7462;53.530;9.414;2023-04-24T10:05:30;9.53;;;8.63;;
14740;SDS011;7462;53.530;9.414;2023-04-24T10:08:00;9.43;;;8.53;;
14740;SDS011;7462;53.530;9.414;2023-04-24T10:10:31;9.17;;;8.27;;
14740;SDS011;7462;53.530;9.414;2023-04-24T10:13:00;9.60;;;8.60;;
14740;SDS011;7462;53.530;9.414;2023-04-24T10:15:29;8.97;;;8.13;;
14740;SDS011;7462;53.530;9.414;2023-04-24T10:17:58;9.57;;;8.53;;
14740;SDS011;7462;53.530;9.414;2023-04-24T10:20:27;10.67;;;8.30;;
14740;SDS011;7462;53.530;9.414;2023-04-24T10:22:58;9.20;;;8.30;;
14740;SDS011;7462;53.530;9.414;2023-04-24T10:25:27;9.80;;;8.80;;
14740;SDS011;7462;53.530;9.414;2023-04-24T10:27:57;10.43;;;9.33;;
14740;SDS011;7462;53.530;9.414;2023-04-24T10:30:26;10.03;;;9.00;;
14740;SDS011;7462;53.530;9.414;2023-04-24T10:32:56;11.87;;;10.67;;
14740;SDS011;7462;53.530;9.414;2023-04-24T10:35:24;10.77;;;9.87;;
14740;SDS011;7462;53.530;9.414;2023-04-24T10:37:54;13.03;;;11.70;;
14740;SDS011;7462;53.530;9.414;2023-04-24T10:40:27;12.67;;;11.37;;
14740;SDS011;7462;53.530;9.414;2023-04-24T10:42:58;13.47;;;12.27;;
14740;SDS011;7462;53.530;9.414;2023-04-24T10:45:27;13.93;;;12.13;;
14740;SDS011;7462;53.530;9.414;2023-04-24T10:47:56;15.10;;;13.10;;
14740;SDS011;7462;53.530;9.414;2023-04-24T10:50:41;14.47;;;12.93;;
14740;SDS011;7462;53.530;9.414;2023-04-24T10:53:16;14.87;;;13.37;;
14740;SDS011;7462;53.530;9.414;2023-04-24T10:55:46;15.43;;;13.77;;
14740;SDS011;7462;53.530;9.414;2023-04-24T10:58:15;14.03;;;12.47;;
14740;SDS011;7462;53.530;9.414;2023-04-24T11:00:54;13.93;;;12.53;;
14740;SDS011;7462;53.530;9.414;2023-04-24T11:03:25;13.33;;;12.03;;
14740;SDS011;7462;53.530;9.414;2023-04-24T11:05:56;13.93;;;12.53;;
14740;SDS011;7462;53.530;9.414;2023-04-24T11:08:28;14.33;;;12.80;;
14740;SDS011;7462;53.530;9.414;2023-04-24T11:10:59;13.60;;;12.20;;
14740;SDS011;7462;53.530;9.414;2023-04-24T11:16:34;13.10;;;11.63;;
14740;SDS011;7462;53.530;9.414;2023-04-24T11:19:07;12.93;;;11.53;;
14740;SDS011;7462;53.530;9.414;2023-04-24T11:21:39;12.87;;;11.37;;
14740;SDS011;7462;53.530;9.414;2023-04-24T11:24:23;12.57;;;11.27;;
14740;SDS011;7462;53.530;9.414;2023-04-24T11:26:54;12.37;;;11.17;;
14740;SDS011;7462;53.530;9.414;2023-04-24T11:29:23;12.07;;;10.83;;
14740;SDS011;7462;53.530;9.414;2023-04-24T11:32:16;13.10;;;11.20;;
14740;SDS011;7462;53.530;9.414;2023-04-24T11:34:47;12.37;;;10.63;;
14740;SDS011;7462;53.530;9.414;2023-04-24T11:37:15;12.80;;;11.27;;
14740;SDS011;7462;53.530;9.414;2023-04-24T11:39:45;11.90;;;10.80;;
14740;SDS011;7462;53.530;9.414;2023-04-24T11:42:14;11.97;;;10.87;;
14740;SDS011;7462;53.530;9.414;2023-04-24T11:44:43;11.07;;;10.07;;
14740;SDS011;7462;53.530;9.414;2023-04-24T11:47:13;10.83;;;9.73;;
14740;SDS011;7462;53.530;9.414;2023-04-24T11:49:42;10.70;;;9.77;;
14740;SDS011;7462;53.530;9.414;2023-04-24T11:52:11;11.23;;;9.73;;
14740;SDS011;7462;53.530;9.414;2023-04-24T11:54:48;10.83;;;9.87;;
14740;SDS011;7462;53.530;9.414;2023-04-24T11:57:18;11.27;;;9.83;;
14740;SDS011;7462;53.530;9.414;2023-04-24T11:59:48;8.97;;;8.17;;
14740;SDS011;7462;53.530;9.414;2023-04-24T12:02:20;9.50;;;8.60;;
14740;SDS011;7462;53.530;9.414;2023-04-24T12:04:49;8.37;;;7.47;;
14740;SDS011;7462;53.530;9.414;2023-04-24T12:07:18;9.47;;;8.60;;
14740;SDS011;7462;53.530;9.414;2023-04-24T12:09:49;9.10;;;8.30;;
14740;SDS011;7462;53.530;9.414;2023-04-24T12:12:24;8.40;;;7.60;;
14740;SDS011;7462;53.530;9.414;2023-04-24T12:14:55;8.83;;;7.57;;
14740;SDS011;7462;53.530;9.414;2023-04-24T12:17:26;8.57;;;7.87;;
14740;SDS011;7462;53.530;9.414;2023-04-24T12:19:59;8.73;;;7.97;;
14740;SDS011;7462;53.530;9.414;2023-04-24T12:22:28;8.07;;;7.27;;
14740;SDS011;7462;53.530;9.414;2023-04-24T12:25:14;7.90;;;7.20;;
14740;SDS011;7462;53.530;9.414;2023-04-24T12:27:45;7.83;;;7.13;;
14740;SDS011;7462;53.530;9.414;2023-04-24T12:30:14;7.70;;;7.00;;
14740;SDS011;7462;53.530;9.414;2023-04-24T12:32:44;8.10;;;7.30;;
14740;SDS011;7462;53.530;9.414;2023-04-24T12:35:18;8.23;;;7.53;;
14740;SDS011;7462;53.530;9.414;2023-04-24T12:37:48;7.87;;;7.27;;
14740;SDS011;7462;53.530;9.414;2023-04-24T12:40:18;8.40;;;7.67;;
14740;SDS011;7462;53.530;9.414;2023-04-24T12:42:50;7.53;;;6.90;;
14740;SDS011;7462;53.530;9.414;2023-04-24T12:45:20;7.63;;;7.00;;
14740;SDS011;7462;53.530;9.414;2023-04-24T12:47:50;6.90;;;6.30;;
14740;SDS011;7462;53.530;9.414;2023-04-24T12:50:18;7.70;;;6.87;;
14740;SDS011;7462;53.530;9.414;2023-04-24T12:52:47;7.37;;;6.67;;
14740;SDS011;7462;53.530;9.414;2023-04-24T12:55:15;7.57;;;6.90;;
14740;SDS011;7462;53.530;9.414;2023-04-24T12:57:45;7.90;;;7.20;;
14740;SDS011;7462;53.530;9.414;2023-04-24T13:00:14;8.57;;;7.77;;
14740;SDS011;7462;53.530;9.414;2023-04-24T13:02:45;9.47;;;8.50;;
14740;SDS011;7462;53.530;9.414;2023-04-24T13:05:15;9.27;;;8.37;;
14740;SDS011;7462;53.530;9.414;2023-04-24T13:07:43;8.77;;;7.87;;
14740;SDS011;7462;53.530;9.414;2023-04-24T13:10:11;8.53;;;7.73;;
14740;SDS011;7462;53.530;9.414;2023-04-24T13:12:42;8.10;;;7.43;;
14740;SDS011;7462;53.530;9.414;2023-04-24T13:15:12;7.80;;;7.10;;
14740;SDS011;7462;53.530;9.414;2023-04-24T13:17:40;6.77;;;6.13;;
14740;SDS011;7462;53.530;9.414;2023-04-24T13:20:08;6.93;;;6.10;;
14740;SDS011;7462;53.530;9.414;2023-04-24T13:22:37;6.83;;;6.23;;
14740;SDS011;7462;53.530;9.414;2023-04-24T13:25:05;7.10;;;6.50;;
14740;SDS011;7462;53.530;9.414;2023-04-24T13:27:35;7.63;;;6.67;;
14740;SDS011;7462;53.530;9.414;2023-04-24T13:30:06;8.10;;;7.30;;
14740;SDS011;7462;53.530;9.414;2023-04-24T13:32:35;8.33;;;7.53;;
14740;SDS011;7462;53.530;9.414;2023-04-24T13:35:03;8.33;;;7.60;;
14740;SDS011;7462;53.530;9.414;2023-04-24T13:37:32;7.97;;;7.27;;
14740;SDS011;7462;53.530;9.414;2023-04-24T13:40:00;8.23;;;7.53;;
14740;SDS011;7462;53.530;9.414;2023-04-24T13:42:28;9.00;;;8.20;;
14740;SDS011;7462;53.530;9.414;2023-04-24T13:44:56;8.93;;;8.23;;
14740;SDS011;7462;53.530;9.414;2023-04-24T13:47:27;9.23;;;8.43;;
14740;SDS011;7462;53.530;9.414;2023-04-24T13:49:56;9.60;;;8.07;;
14740;SDS011;7462;53.530;9.414;2023-04-24T13:52:24;9.67;;;8.77;;
14740;SDS011;7462;53.530;9.414;2023-04-24T13:54:52;8.93;;;8.07;;
14740;SDS011;7462;53.530;9.414;2023-04-24T13:57:20;11.53;;;8.73;;
14740;SDS011;7462;53.530;9.414;2023-04-24T13:59:48;8.63;;;7.83;;
14740;SDS011;7462;53.530;9.414;2023-04-24T14:02:16;9.50;;;8.70;;
14740;SDS011;7462;53.530;9.414;2023-04-24T14:04:46;8.97;;;8.27;;
14740;SDS011;7462;53.530;9.414;2023-04-24T14:07:14;8.87;;;8.07;;
14740;SDS011;7462;53.530;9.414;2023-04-24T14:09:42;10.07;;;9.17;;
14740;SDS011;7462;53.530;9.414;2023-04-24T14:12:10;8.97;;;8.07;;
14740;SDS011;7462;53.530;9.414;2023-04-24T14:14:39;9.83;;;9.00;;
14740;SDS011;7462;53.530;9.414;2023-04-24T14:17:07;9.87;;;8.97;;
14740;SDS011;7462;53.530;9.414;2023-04-24T14:19:35;7.93;;;7.23;;
14740;SDS011;7462;53.530;9.414;2023-04-24T14:22:05;7.87;;;7.17;;
14740;SDS011;7462;53.530;9.414;2023-04-24T14:24:33;6.27;;;5.70;;
14740;SDS011;7462;53.530;9.414;2023-04-24T14:27:01;5.10;;;4.60;;
14740;SDS011;7462;53.530;9.414;2023-04-24T14:29:29;4.10;;;3.80;;
14740;SDS011;7462;53.530;9.414;2023-04-24T14:32:00;3.80;;;3.20;;
14740;SDS011;7462;53.530;9.414;2023-04-24T14:34:28;4.17;;;3.77;;
14740;SDS011;7462;53.530;9.414;2023-04-24T14:36:56;4.03;;;3.40;;
14740;SDS011;7462;53.530;9.414;2023-04-24T14:39:26;4.00;;;3.53;;
14740;SDS011;7462;53.530;9.414;2023-04-24T14:41:54;4.30;;;3.90;;
14740;SDS011;7462;53.530;9.414;2023-04-24T14:44:23;5.20;;;4.20;;
14740;SDS011;7462;53.530;9.414;2023-04-24T14:46:51;4.50;;;4.10;;
14740;SDS011;7462;53.530;9.414;2023-04-24T14:49:19;4.93;;;4.53;;
14740;SDS011;7462;53.530;9.414;2023-04-24T14:51:48;5.40;;;4.47;;
14740;SDS011;7462;53.530;9.414;2023-04-24T14:54:16;5.73;;;4.70;;
14740;SDS011;7462;53.530;9.414;2023-04-24T14:56:45;5.20;;;4.30;;
14740;SDS011;7462;53.530;9.414;2023-04-24T14:59:14;5.20;;;4.70;;
14740;SDS011;7462;53.530;9.414;2023-04-24T15:01:42;5.67;;;5.17;;
14740;SDS011;7462;53.530;9.414;2023-04-24T15:04:10;5.97;;;5.37;;
14740;SDS011;7462;53.530;9.414;2023-04-24T15:06:39;6.40;;;5.77;;
14740;SDS011;7462;53.530;9.414;2023-04-24T15:09:07;8.50;;;6.30;;
14740;SDS011;7462;53.530;9.414;2023-04-24T15:11:36;9.53;;;7.80;;
14740;SDS011;7462;53.530;9.414;2023-04-24T15:14:05;9.63;;;8.70;;
14740;SDS011;7462;53.530;9.414;2023-04-24T15:16:37;12.03;;;9.90;;
14740;SDS011;7462;53.530;9.414;2023-04-24T15:19:05;10.47;;;9.20;;